createdAt,value
2022-09-28T00:03:24.524Z,91.32
2022-09-28T00:08:27.778Z,91.25
2022-09-28T00:13:33.784Z,91.12
2022-09-28T00:18:47.255Z,91.23
2022-09-28T00:24:16.429Z,91.34
2022-09-28T00:29:27.248Z,91.45
2022-09-28T00:34:40.174Z,91.48
2022-09-28T00:39:44.809Z,91.33
2022-09-28T00:44:58.682Z,91.31
2022-09-28T00:50:07.433Z,91.25
2022-09-28T00:55:17.813Z,91.13
2022-09-28T01:00:22.205Z,91.10
2022-09-28T01:05:27.102Z,91.14
2022-09-28T01:10:31.741Z,91.16
2022-09-28T01:15:44.176Z,91.28
2022-09-28T01:21:06.192Z,91.44
2022-09-28T01:26:24.405Z,91.58
2022-09-28T01:31:32.017Z,91.57
2022-09-28T01:36:44.363Z,91.59
2022-09-28T01:41:51.785Z,92.03
2022-09-28T01:46:55.355Z,92.40
2022-09-28T01:52:33.292Z,92.29
2022-09-28T01:58:01.738Z,92.61
2022-09-28T02:03:14.365Z,92.86
2022-09-28T02:08:34.484Z,92.91
2022-09-28T02:13:48.610Z,92.94
2022-09-28T02:18:53.228Z,93.17
2022-09-28T02:23:59.078Z,93.62
2022-09-28T02:29:02.974Z,93.63
2022-09-28T02:34:07.231Z,93.45
2022-09-28T02:39:15.392Z,93.35
2022-09-28T02:44:49.715Z,93.32
2022-09-28T02:50:16.485Z,93.35
2022-09-28T02:55:29.133Z,93.30
2022-09-28T03:00:45.860Z,93.24
2022-09-28T03:06:08.347Z,93.30
2022-09-28T03:11:25.502Z,93.51
2022-09-28T03:16:32.200Z,93.76
2022-09-28T03:21:36.433Z,93.65
2022-09-28T03:26:39.870Z,93.57
2022-09-28T03:31:44.536Z,93.52
2022-09-28T03:36:48.636Z,93.59
2022-09-28T03:41:52.165Z,93.98
2022-09-28T03:46:56.910Z,94.34
2022-09-28T03:52:00.622Z,94.50
2022-09-28T03:57:03.964Z,94.54
2022-09-28T04:02:08.512Z,94.51
2022-09-28T04:07:11.928Z,94.45
2022-09-28T04:12:15.772Z,94.44
2022-09-28T04:17:19.070Z,94.36
2022-09-28T04:22:23.529Z,94.20
2022-09-28T04:27:46.113Z,94.21
2022-09-28T04:32:49.860Z,94.51
2022-09-28T04:37:53.718Z,94.55
2022-09-28T04:42:57.450Z,94.45
2022-09-28T04:48:01.827Z,94.42
2022-09-28T04:53:24.063Z,94.30
2022-09-28T04:58:28.107Z,94.18
2022-09-28T05:03:31.686Z,94.28
2022-09-28T05:08:52.147Z,94.24
2022-09-28T05:13:55.659Z,94.20
2022-09-28T05:18:58.973Z,94.21
2022-09-28T05:24:07.754Z,94.10
2022-09-28T05:29:15.031Z,94.11
2022-09-28T05:34:31.764Z,94.28
2022-09-28T05:39:35.213Z,94.35
2022-09-28T05:44:38.776Z,94.24
2022-09-28T05:49:43.326Z,94.12
2022-09-28T05:54:49.179Z,94.17
2022-09-28T05:59:52.540Z,94.21
2022-09-28T06:04:56.165Z,94.01
2022-09-28T06:10:14.423Z,93.84
2022-09-28T06:15:32.768Z,93.81
2022-09-28T06:20:47.101Z,93.34
2022-09-28T06:26:04.527Z,92.88
2022-09-28T06:31:16.105Z,92.35
2022-09-28T06:36:28.418Z,91.56
2022-09-28T06:41:32.113Z,89.37
2022-09-28T06:46:39.126Z,88.42
2022-09-28T06:52:01.320Z,87.26
2022-09-28T06:57:30.634Z,84.45
2022-09-28T07:02:33.979Z,83.66
2022-09-28T07:07:50.682Z,82.64
2022-09-28T07:13:07.922Z,81.48
2022-09-28T07:18:20.867Z,81.40
2022-09-28T07:23:24.994Z,81.10
2022-09-28T07:28:49.795Z,81.03
2022-09-28T07:34:17.701Z,80.46
2022-09-28T07:40:10.242Z,80.01
2022-09-28T07:45:15.482Z,79.68
2022-09-28T07:50:21.264Z,79.18
2022-09-28T07:55:43.165Z,79.09
2022-09-28T08:01:12.132Z,76.98
2022-09-28T08:06:17.943Z,80.03
2022-09-28T08:11:24.776Z,79.69
2022-09-28T08:16:50.781Z,77.99
2022-09-28T08:22:19.174Z,76.02
2022-09-28T08:27:22.692Z,80.01
2022-09-28T08:32:27.536Z,77.81
2022-09-28T08:37:57.163Z,77.37
2022-09-28T08:43:50.384Z,76.81
2022-09-28T08:49:26.531Z,70.77
2022-09-28T08:54:58.316Z,68.45
2022-09-28T09:00:21.521Z,69.24
2022-09-28T09:05:44.466Z,68.73
2022-09-28T09:11:14.378Z,70.33
2022-09-28T09:16:30.451Z,69.41
2022-09-28T09:22:27.573Z,67.74
2022-09-28T09:28:04.217Z,65.50
2022-09-28T09:33:37.583Z,66.79
2022-09-28T09:39:26.194Z,67.55
2022-09-28T09:44:50.941Z,65.76
2022-09-28T09:50:46.083Z,65.09
2022-09-28T09:55:57.534Z,65.53
2022-09-28T10:01:11.320Z,66.01
2022-09-28T10:06:37.769Z,66.90
2022-09-28T10:11:47.066Z,70.11
2022-09-28T10:16:53.833Z,67.47
2022-09-28T10:22:25.875Z,68.57
2022-09-28T10:27:36.671Z,65.61
2022-09-28T10:32:49.547Z,63.17
2022-09-28T10:38:16.140Z,62.79
2022-09-28T10:44:12.449Z,66.24
2022-09-28T10:49:46.997Z,63.55
2022-09-28T10:54:55.199Z,64.45
2022-09-28T11:00:02.711Z,63.30
2022-09-28T11:05:24.003Z,64.70
2022-09-28T11:10:35.635Z,65.73
2022-09-28T11:15:45.746Z,67.93
2022-09-28T11:21:12.630Z,70.55
2022-09-28T11:26:23.455Z,71.62
2022-09-28T11:31:28.534Z,72.81
2022-09-28T11:36:53.041Z,73.25
2022-09-28T11:42:11.019Z,74.62
2022-09-28T11:47:33.165Z,76.39
2022-09-28T11:52:55.070Z,78.30
2022-09-28T11:58:04.288Z,79.19
2022-09-28T12:03:44.670Z,79.66
2022-09-28T12:08:55.137Z,80.23
2022-09-28T12:14:46.678Z,78.83
2022-09-28T12:19:55.706Z,78.02
2022-09-28T12:24:59.785Z,78.45
2022-09-28T12:30:14.141Z,79.08
2022-09-28T12:35:37.498Z,78.58
2022-09-28T12:40:54.099Z,78.16
2022-09-28T12:46:16.463Z,78.52
2022-09-28T12:51:53.286Z,78.91
2022-09-28T12:57:14.573Z,78.38
2022-09-28T13:02:42.207Z,79.05
2022-09-28T13:08:24.076Z,79.01
2022-09-28T13:13:43.120Z,79.21
2022-09-28T13:18:54.269Z,79.38
2022-09-28T13:24:14.361Z,79.60
2022-09-28T13:29:25.335Z,78.86
2022-09-28T13:34:32.857Z,79.29
2022-09-28T13:39:37.828Z,79.21
2022-09-28T13:44:47.420Z,79.65
2022-09-28T13:50:02.672Z,80.04
2022-09-28T13:55:23.437Z,80.34
2022-09-28T14:00:54.600Z,81.82
2022-09-28T14:06:02.402Z,82.41
2022-09-28T14:11:25.321Z,81.87
2022-09-28T14:16:33.747Z,81.48
2022-09-28T14:22:16.889Z,81.47
2022-09-28T14:28:19.307Z,82.22
2022-09-28T14:33:23.227Z,81.86
2022-09-28T14:38:55.894Z,83.35
2022-09-28T14:44:10.919Z,84.59
2022-09-28T14:49:24.344Z,84.57
2022-09-28T14:54:39.630Z,83.22
2022-09-28T14:59:46.951Z,83.81
2022-09-28T15:04:55.663Z,84.46
2022-09-28T15:10:02.318Z,84.18
2022-09-28T15:15:22.811Z,85.24
2022-09-28T15:20:43.899Z,85.75
2022-09-28T15:26:03.547Z,84.99
2022-09-28T15:31:21.751Z,86.23
2022-09-28T15:36:59.224Z,86.37
2022-09-28T15:42:08.803Z,85.88
2022-09-28T15:47:28.568Z,85.29
2022-09-28T15:52:44.007Z,84.72
2022-09-28T15:58:06.650Z,84.31
2022-09-28T16:03:15.813Z,84.60
2022-09-28T16:08:44.810Z,84.49
2022-09-28T16:13:56.500Z,85.08
2022-09-28T16:19:04.220Z,85.62
2022-09-28T16:24:20.656Z,86.04
2022-09-28T16:29:41.026Z,86.23
2022-09-28T16:34:44.467Z,86.61
2022-09-28T16:39:55.059Z,87.76
2022-09-28T16:44:58.803Z,88.11
2022-09-28T16:50:06.819Z,88.81
2022-09-28T16:55:39.581Z,89.18
2022-09-28T17:00:47.922Z,89.04
2022-09-28T17:05:54.407Z,88.96
2022-09-28T17:11:23.412Z,88.70
2022-09-28T17:17:06.091Z,88.52
2022-09-28T17:21:55.827Z,88.40
2022-09-28T17:27:01.178Z,88.91
2022-09-28T17:32:19.445Z,89.45
2022-09-28T17:37:22.892Z,90.63
2022-09-28T17:42:29.099Z,91.30
2022-09-28T17:47:35.098Z,91.34
2022-09-28T17:52:39.386Z,91.32
2022-09-28T17:57:42.996Z,91.09
2022-09-28T18:02:46.491Z,90.74
2022-09-28T18:07:50.754Z,89.79
2022-09-28T18:12:56.272Z,90.59
2022-09-28T18:17:59.648Z,91.64
2022-09-28T18:23:03.331Z,91.86
2022-09-28T18:28:06.774Z,91.91
2022-09-28T18:33:12.590Z,91.99
2022-09-28T18:38:25.624Z,92.03
2022-09-28T18:43:33.193Z,91.86
2022-09-28T18:48:45.894Z,91.80
2022-09-28T18:54:00.333Z,91.72
2022-09-28T18:59:23.396Z,91.50
2022-09-28T19:04:42.496Z,91.35
2022-09-28T19:10:06.275Z,91.21
2022-09-28T19:15:23.266Z,90.78
2022-09-28T19:20:32.098Z,90.50
2022-09-28T19:26:00.264Z,90.56
2022-09-28T19:31:09.619Z,90.82
2022-09-28T19:36:29.699Z,90.56
2022-09-28T19:41:44.909Z,90.31
2022-09-28T19:46:48.345Z,90.15
2022-09-28T19:52:17.506Z,90.11
2022-09-28T19:57:31.589Z,90.29
2022-09-28T20:02:38.126Z,90.30
2022-09-28T20:07:45.270Z,90.23
2022-09-28T20:12:48.693Z,90.29
2022-09-28T20:17:52.751Z,90.43
2022-09-28T20:22:58.621Z,90.33
2022-09-28T20:28:02.757Z,90.27
2022-09-28T20:33:19.006Z,90.42
2022-09-28T20:38:42.532Z,90.73
2022-09-28T20:43:54.591Z,91.05
2022-09-28T20:49:08.147Z,91.19
2022-09-28T20:54:15.224Z,91.03
2022-09-28T20:59:30.347Z,91.17
2022-09-28T21:04:40.681Z,91.21
2022-09-28T21:09:44.562Z,91.42
2022-09-28T21:14:51.425Z,91.50
2022-09-28T21:19:54.793Z,91.53
2022-09-28T21:24:59.658Z,91.69
2022-09-28T21:30:03.675Z,91.95
2022-09-28T21:35:07.501Z,91.63
2022-09-28T21:40:11.134Z,91.76
2022-09-28T21:45:15.046Z,92.09
2022-09-28T21:50:20.317Z,92.25
2022-09-28T21:55:28.765Z,92.29
2022-09-28T22:00:39.525Z,92.14
2022-09-28T22:05:45.345Z,92.08
2022-09-28T22:11:22.923Z,92.03
2022-09-28T22:16:30.545Z,91.80
2022-09-28T22:21:39.507Z,91.66
2022-09-28T22:26:46.592Z,91.69
2022-09-28T22:31:51.558Z,91.59
2022-09-28T22:36:57.247Z,91.62
2022-09-28T22:42:02.902Z,91.61
2022-09-28T22:47:06.515Z,91.68
2022-09-28T22:52:12.007Z,91.82
2022-09-28T22:57:15.418Z,91.65
2022-09-28T23:02:19.400Z,91.56
2022-09-28T23:07:23.852Z,91.71
2022-09-28T23:12:28.153Z,91.88
2022-09-28T23:17:31.434Z,91.94
2022-09-28T23:22:34.773Z,91.87
2022-09-28T23:27:38.285Z,91.87
2022-09-28T23:32:42.400Z,91.89
2022-09-28T23:37:50.973Z,91.86
2022-09-28T23:42:54.253Z,91.86
2022-09-28T23:47:57.671Z,92.23
2022-09-28T23:53:01.518Z,92.52
2022-09-28T23:58:04.877Z,92.63
